KAZO/AZO METAR and TAF weather

Enter ICAO airport designator
Station Type Date Time Source
KAZO METAR 2018/10/21 02:53 UTC NOAA

KAZO 210253Z AUTO 34010KT 10SM OVC047 02/M02 A3018 RMK AO2 PK WND 36027/0154 SLP227 60000 T00221022 51040


Station Type Date Time Source
KAZO Decoded METAR 2018/10/21 02:53 UTC NOAA

KALAMAZOO/BATTLE CREEK AIRPORT, MI, United States (KAZO) 42-14N 085-33W 272M
Oct 20, 2018 - 10:53 PM EDT / 2018.10.21 0253 UTC
Wind: from the NNW (340 degrees) at 12 MPH (10 KT):0
Visibility: 10 mile(s):0
Sky conditions: overcast
Temperature: 36.0 F (2.2 C)
Dew Point: 28.0 F (-2.2 C)
Relative Humidity: 72%
Pressure (altimeter): 30.18 in. Hg (1022 hPa)
Pressure tendency: 0.12 inches (4.0 hPa) higher than three hours ago
ob: KAZO 210253Z AUTO 34010KT 10SM OVC047 02/M02 A3018 RMK AO2 PK WND 36027/0154 SLP227 60000 T00221022 51040
cycle: 3

Station Type Date Time Source
KAZO TAF 2018/10/21 03:21 UTC NOAA

TAF
AMD KAZO 210317Z 2103/2124 33008KT P6SM BKN035
FM211300 24008KT P6SM BKN035
FM211900 23011KT P6SM SCT035


Example: see airport list